Time;durP1;ratioP1;P1;durP2;ratioP2;P2;SDS_P1;SDS_P2;PMS_P1;PMS_P2;Temp;Humidity;BMP_temperature;BMP_pressure;BME280_temperature;BME280_humidity;BME280_pressure;Samples;Min_cycle;Max_cycle;Signal;HPM_P1;HPM_P2
2021/07/19 00:02:15;;;;;;;3.45;2.38;;;;;;;22.73;57.69;100507.97;10297557;28;20049;-56
2021/07/19 00:07:17;;;;;;;2.45;1.88;;;;;;;22.70;57.77;100508.34;10294912;28;20060;-55
2021/07/19 00:12:19;;;;;;;3.20;1.88;;;;;;;22.48;58.11;100519.25;10297421;28;20054;-56
2021/07/19 00:17:20;;;;;;;2.38;2.08;;;;;;;22.47;59.05;100509.44;10299900;28;20046;-56
2021/07/19 00:22:22;;;;;;;3.25;1.92;;;;;;;22.44;59.08;100492.72;10298123;28;20065;-59
2021/07/19 00:27:24;;;;;;;4.07;2.30;;;;;;;22.45;58.93;100508.78;10290866;28;20065;-56
2021/07/19 00:32:26;;;;;;;3.20;2.00;;;;;;;22.39;59.33;100501.44;10298416;28;20058;-55
2021/07/19 00:37:27;;;;;;;3.47;2.05;;;;;;;22.28;59.57;100501.91;10294538;28;20500;-56
2021/07/19 00:42:29;;;;;;;5.97;2.00;;;;;;;22.21;60.49;100510.84;10291297;28;20061;-57
2021/07/19 00:47:31;;;;;;;3.55;2.10;;;;;;;22.20;60.32;100498.34;10298749;28;20054;-56
2021/07/19 00:52:32;;;;;;;2.50;1.92;;;;;;;22.00;61.23;100497.28;10273588;28;20057;-57
2021/07/19 00:57:37;;;;;;;2.40;2.20;;;;;;;21.98;61.43;100493.91;10277098;28;20047;-56
2021/07/19 01:02:43;;;;;;;3.38;2.28;;;;;;;22.02;61.39;100496.06;10281297;28;20683;-56
2021/07/19 01:07:47;;;;;;;2.28;2.08;;;;;;;22.00;60.95;100486.44;10291006;28;20647;-56
2021/07/19 01:12:56;;;;;;;4.20;2.80;;;;;;;21.81;61.42;100491.47;10301622;28;20046;-56
2021/07/19 01:17:58;;;;;;;4.57;2.95;;;;;;;21.59;62.22;100487.03;10289186;28;20058;-56
2021/07/19 01:23:15;;;;;;;2.67;2.15;;;;;;;21.62;62.76;100489.34;10302040;28;20271;-55
2021/07/19 01:28:55;;;;;;;2.58;2.35;;;;;;;21.69;62.17;100492.97;10303509;28;20053;-59
2021/07/19 01:33:59;;;;;;;2.60;2.40;;;;;;;21.75;61.92;100500.34;10245060;28;20051;-56
2021/07/19 01:39:05;;;;;;;3.75;2.58;;;;;;;21.78;61.96;100489.13;10283323;28;20070;-56
2021/07/19 01:44:08;;;;;;;4.90;2.53;;;;;;;21.72;62.01;100476.34;10279918;28;20046;-57
2021/07/19 01:49:11;;;;;;;6.65;2.30;;;;;;;21.51;62.44;100472.59;10295937;28;20050;-57
2021/07/19 01:54:14;;;;;;;3.25;2.95;;;;;;;21.50;62.35;100476.31;10294313;28;20057;-58
2021/07/19 01:59:22;;;;;;;3.03;2.70;;;;;;;21.54;62.12;100472.22;10284017;28;20054;-57
2021/07/19 02:04:23;;;;;;;3.45;2.53;;;;;;;21.46;62.48;100461.44;10296862;28;20289;-57
2021/07/19 02:09:25;;;;;;;3.90;2.63;;;;;;;21.32;62.56;100452.31;10300065;28;20046;-56
2021/07/19 02:14:28;;;;;;;3.72;2.63;;;;;;;21.41;62.83;100463.88;10295103;28;20056;-56
2021/07/19 02:19:30;;;;;;;3.72;2.35;;;;;;;21.46;62.37;100469.56;10297790;28;20768;-56
2021/07/19 02:24:33;;;;;;;3.15;2.40;;;;;;;21.26;63.48;100473.88;10294572;28;20244;-57
2021/07/19 02:29:37;;;;;;;3.08;2.70;;;;;;;21.24;63.36;100467.81;10291136;28;20046;-57
2021/07/19 02:34:39;;;;;;;4.25;2.70;;;;;;;20.99;64.72;100471.66;10298716;28;20050;-57
2021/07/19 02:39:41;;;;;;;5.32;2.92;;;;;;;21.02;64.14;100478.56;10277740;28;20050;-57
2021/07/19 02:44:43;;;;;;;4.25;2.80;;;;;;;21.08;64.47;100477.81;10292330;28;20046;-57
2021/07/19 02:49:45;;;;;;;2.80;2.47;;;;;;;20.87;65.22;100488.53;10312114;22;20064;-67
2021/07/19 02:54:48;;;;;;;6.35;3.33;;;;;;;20.80;65.21;100478.47;10274864;28;20085;-68
2021/07/19 02:59:49;;;;;;;5.07;2.90;;;;;;;20.66;65.80;100495.53;10284469;28;20061;-68
2021/07/19 03:04:55;;;;;;;5.07;2.83;;;;;;;20.51;66.81;100481.06;10289580;28;20243;-68
2021/07/19 03:09:59;;;;;;;6.65;2.83;;;;;;;20.60;67.42;100488.13;10287431;28;20059;-68
2021/07/19 03:15:05;;;;;;;4.28;2.58;;;;;;;20.56;67.50;100489.50;10289759;28;20055;-67
2021/07/19 03:20:09;;;;;;;3.30;3.00;;;;;;;20.66;67.37;100484.69;10289544;28;20058;-67
2021/07/19 03:25:12;;;;;;;4.18;3.00;;;;;;;20.66;67.43;100479.28;10293801;28;20062;-67
2021/07/19 03:30:14;;;;;;;3.33;2.42;;;;;;;20.64;67.38;100482.16;10282376;28;20046;-67
2021/07/19 03:35:18;;;;;;;4.45;2.88;;;;;;;20.61;67.46;100504.16;10290172;28;20054;-68
2021/07/19 03:40:22;;;;;;;4.68;2.75;;;;;;;20.61;67.83;100500.59;10292120;28;20058;-69
2021/07/19 03:45:25;;;;;;;3.88;2.83;;;;;;;20.64;67.42;100503.78;10292373;28;20046;-69
2021/07/19 03:50:27;;;;;;;7.07;3.53;;;;;;;20.67;67.30;100502.59;10290268;28;20042;-69
2021/07/19 03:55:29;;;;;;;4.28;3.15;;;;;;;20.72;67.04;100515.59;10284554;28;20054;-68
2021/07/19 04:00:31;;;;;;;5.63;2.88;;;;;;;20.76;66.86;100506.91;10287224;28;20155;-69
2021/07/19 04:05:40;;;;;;;5.78;3.60;;;;;;;20.73;66.89;100519.97;10280810;28;20577;-68
2021/07/19 04:10:43;;;;;;;3.65;3.20;;;;;;;20.65;67.32;100526.25;10292128;28;20108;-69
2021/07/19 04:15:46;;;;;;;3.07;2.47;;;;;;;20.72;67.07;100529.13;10284601;28;20038;-69
2021/07/19 04:20:49;;;;;;;3.53;2.38;;;;;;;20.73;67.45;100542.47;10282543;28;20042;-69
2021/07/19 04:25:51;;;;;;;4.03;3.00;;;;;;;20.72;67.32;100548.88;10290587;28;20058;-69
2021/07/19 04:30:53;;;;;;;5.60;3.10;;;;;;;20.75;67.84;100548.50;10296712;28;20054;-69
2021/07/19 04:35:54;;;;;;;4.55;3.17;;;;;;;20.69;67.80;100541.13;10298845;28;20128;-69
2021/07/19 04:40:57;;;;;;;3.47;2.97;;;;;;;20.77;68.00;100543.75;10290178;28;20460;-69
2021/07/19 04:45:58;;;;;;;3.60;2.85;;;;;;;20.79;67.34;100555.25;10293836;28;20112;-68
2021/07/19 04:51:00;;;;;;;4.30;3.20;;;;;;;20.77;68.18;100551.88;10289947;28;20097;-69
2021/07/19 04:56:05;;;;;;;5.65;3.10;;;;;;;20.71;68.36;100552.59;10302724;28;20050;-68
2021/07/19 05:01:08;;;;;;;7.25;3.25;;;;;;;20.67;69.06;100551.28;10276848;28;20047;-68
2021/07/19 05:06:10;;;;;;;8.02;3.47;;;;;;;20.67;68.75;100548.56;10288012;28;20133;-69
2021/07/19 05:11:13;;;;;;;8.77;3.50;;;;;;;20.71;68.71;100539.06;10280215;28;20059;-68
2021/07/19 05:16:15;;;;;;;5.57;3.00;;;;;;;20.75;68.68;100548.50;10280979;28;20412;-68
2021/07/19 05:21:16;;;;;;;7.65;3.85;;;;;;;20.76;68.83;100555.63;10286317;28;20137;-68
2021/07/19 05:26:18;;;;;;;9.85;4.35;;;;;;;20.80;68.53;100556.91;10292939;28;20055;-68
2021/07/19 05:31:19;;;;;;;4.65;3.00;;;;;;;20.87;68.26;100556.16;10285775;28;20051;-69
2021/07/19 05:36:21;;;;;;;5.05;2.75;;;;;;;20.93;68.44;100555.47;10291461;28;20051;-69
2021/07/19 05:41:23;;;;;;;7.50;3.05;;;;;;;21.06;67.89;100563.75;10292595;28;20050;-68
2021/07/19 05:46:24;;;;;;;3.17;2.80;;;;;;;21.07;67.30;100554.63;10275124;28;20461;-70
2021/07/19 05:51:26;;;;;;;4.30;3.20;;;;;;;21.11;68.06;100558.66;10263506;28;20806;-68
2021/07/19 05:56:29;;;;;;;6.00;3.30;;;;;;;21.31;66.79;100563.50;10271012;28;20050;-68
2021/07/19 06:01:31;;;;;;;;;;;;;;;21.44;65.77;100571.81;10261993;28;20055;-70
2021/07/19 06:06:33;;;;;;;12.35;4.05;;;;;;;21.41;65.66;100569.50;10265564;28;20414;-69
2021/07/19 06:11:34;;;;;;;7.07;3.65;;;;;;;21.50;65.30;100573.81;10265119;28;20799;-67
2021/07/19 06:16:36;;;;;;;6.10;2.95;;;;;;;21.46;64.68;100567.03;10265200;28;20043;-68
2021/07/19 06:21:37;;;;;;;4.22;3.10;;;;;;;21.60;64.16;100572.66;10263559;28;20054;-68
2021/07/19 06:26:39;;;;;;;4.75;2.75;;;;;;;21.61;63.24;100571.66;10264396;28;20133;-67
2021/07/19 06:31:40;;;;;;;6.28;3.13;;;;;;;21.66;62.77;100578.19;10262749;28;20060;-67
2021/07/19 06:36:42;;;;;;;6.57;3.10;;;;;;;21.73;62.22;100578.28;10257236;28;20149;-66
2021/07/19 06:41:43;;;;;;;6.25;3.35;;;;;;;21.80;61.76;100578.34;10263843;28;20061;-71
2021/07/19 06:46:45;;;;;;;5.82;2.63;;;;;;;21.95;60.65;100573.75;10263595;28;20452;-69
2021/07/19 06:51:46;;;;;;;3.78;2.50;;;;;;;21.88;57.59;100570.13;10268077;28;20078;-69
2021/07/19 06:56:48;;;;;;;10.05;2.92;;;;;;;21.99;57.80;100574.19;10264827;28;20842;-67
2021/07/19 07:01:50;;;;;;;5.78;2.60;;;;;;;22.01;56.90;100581.13;10260418;28;20054;-68
2021/07/19 07:06:51;;;;;;;5.18;2.55;;;;;;;21.87;56.63;100569.28;10262147;28;20070;-68
2021/07/19 07:11:53;;;;;;;6.35;3.20;;;;;;;22.00;57.57;100573.19;10260429;28;20058;-68
2021/07/19 07:16:59;;;;;;;3.92;3.00;;;;;;;22.00;56.84;100568.59;10261582;28;20757;-69
2021/07/19 07:22:00;;;;;;;4.65;3.00;;;;;;;22.10;56.40;100579.13;10260703;28;20054;-69
2021/07/19 07:27:02;;;;;;;3.72;2.58;;;;;;;22.22;55.83;100568.63;10264623;28;20288;-69
2021/07/19 07:32:05;;;;;;;4.10;2.92;;;;;;;22.09;55.49;100569.31;10259908;28;20682;-68
2021/07/19 07:37:08;;;;;;;4.45;2.50;;;;;;;22.14;55.83;100569.56;10258327;28;21606;-68
2021/07/19 07:42:11;;;;;;;4.50;3.08;;;;;;;22.41;55.28;100576.16;10257899;28;20058;-68
2021/07/19 07:47:13;;;;;;;8.57;3.60;;;;;;;22.56;55.41;100573.38;10258404;28;20046;-68
2021/07/19 07:52:15;;;;;;;5.30;2.97;;;;;;;22.82;54.54;100581.91;10261432;28;20548;-68
2021/07/19 07:57:16;;;;;;;5.30;3.05;;;;;;;23.07;53.29;100576.91;10261337;28;20055;-68
2021/07/19 08:02:18;;;;;;;5.57;3.70;;;;;;;23.21;53.24;100580.56;10267194;28;20051;-70
2021/07/19 08:07:20;;;;;;;7.47;3.50;;;;;;;23.45;51.88;100582.00;10266050;28;20410;-68
2021/07/19 08:12:22;;;;;;;3.30;3.00;;;;;;;23.29;51.85;100583.16;10266762;28;20596;-68
2021/07/19 08:17:23;;;;;;;5.72;2.97;;;;;;;23.84;51.67;100583.22;10263456;28;20047;-67
2021/07/19 08:22:26;;;;;;;7.13;3.47;;;;;;;23.85;51.08;100586.78;10268059;28;20042;-68
2021/07/19 08:27:27;;;;;;;15.27;4.37;;;;;;;23.57;51.53;100583.09;10266595;28;20058;-67
2021/07/19 08:32:29;;;;;;;5.10;2.80;;;;;;;23.26;52.44;100576.22;10272484;28;20062;-68
2021/07/19 08:37:31;;;;;;;16.35;4.63;;;;;;;23.20;52.44;100577.03;10267872;28;20468;-67
2021/07/19 08:42:34;;;;;;;6.45;3.60;;;;;;;23.36;51.78;100566.88;10268278;28;20050;-67
2021/07/19 08:47:40;;;;;;;33.95;6.50;;;;;;;23.03;52.50;100565.59;10265421;28;20057;-68
2021/07/19 08:52:46;;;;;;;6.70;4.00;;;;;;;23.69;51.37;100555.34;10263750;28;20464;-68
2021/07/19 08:57:49;;;;;;;7.10;4.20;;;;;;;24.13;50.41;100556.78;10263858;28;20062;-68
2021/07/19 09:02:51;;;;;;;7.78;4.60;;;;;;;24.55;48.98;100541.16;10270487;28;20115;-69
2021/07/19 09:07:53;;;;;;;7.50;4.53;;;;;;;24.60;48.73;100544.09;10263025;28;20686;-68
2021/07/19 09:12:58;;;;;;;6.63;4.90;;;;;;;24.81;48.12;100542.22;10263537;28;20727;-68
2021/07/19 09:18:01;;;;;;;8.18;5.55;;;;;;;25.32;46.58;100535.25;10265613;28;20047;-68
2021/07/19 09:23:03;;;;;;;7.75;5.60;;;;;;;25.49;45.44;100541.06;10264094;28;20058;-69
2021/07/19 09:28:10;;;;;;;6.60;5.10;;;;;;;25.48;45.56;100521.16;10265618;28;20054;-68
2021/07/19 09:33:15;;;;;;;7.50;5.95;;;;;;;25.60;44.13;100529.50;10265563;28;20467;-68
2021/07/19 09:38:18;;;;;;;12.95;7.57;;;;;;;25.59;44.85;100519.63;10264284;28;20062;-69
2021/07/19 09:43:26;;;;;;;9.07;6.63;;;;;;;26.13;43.82;100519.38;10278331;28;20050;-67
2021/07/19 09:48:28;;;;;;;11.02;7.45;;;;;;;25.84;43.62;100508.00;10276508;28;20047;-68
2021/07/19 09:53:42;;;;;;;7.85;6.80;;;;;;;25.57;43.72;100519.84;10264936;28;20051;-68
2021/07/19 09:58:47;;;;;;;10.50;7.20;;;;;;;26.05;43.42;100520.47;10262473;28;20053;-67
2021/07/19 10:03:48;;;;;;;8.02;6.97;;;;;;;26.65;42.69;100520.03;10262710;28;20468;-68
2021/07/19 10:09:00;;;;;;;8.95;7.00;;;;;;;27.42;40.18;100514.25;10262345;28;20055;-67
2021/07/19 10:14:03;;;;;;;7.47;6.40;;;;;;;27.76;39.90;100517.38;10264949;28;20133;-69
2021/07/19 10:19:05;;;;;;;8.88;7.35;;;;;;;27.73;39.82;100500.59;10264233;28;20054;-69
2021/07/19 10:24:09;;;;;;;11.20;7.45;;;;;;;27.32;40.34;100497.50;10263947;28;20053;-70
2021/07/19 10:29:13;;;;;;;8.50;7.68;;;;;;;27.69;40.56;100508.44;10266038;28;20047;-68
2021/07/19 10:34:19;;;;;;;9.68;8.18;;;;;;;27.57;40.58;100499.34;10262789;28;20074;-69
2021/07/19 10:39:33;;;;;;;9.10;7.72;;;;;;;27.62;40.02;100505.81;10263706;28;20051;-69
2021/07/19 10:44:37;;;;;;;9.05;7.95;;;;;;;28.25;37.61;100489.13;10259570;28;20420;-69
2021/07/19 10:49:41;;;;;;;9.52;8.38;;;;;;;26.85;40.41;100489.81;10260922;28;20059;-68
2021/07/19 10:54:48;;;;;;;10.80;9.35;;;;;;;27.46;39.68;100479.91;10261108;28;20066;-68
2021/07/19 11:00:02;;;;;;;9.13;8.20;;;;;;;27.87;39.41;100478.28;10258449;28;20058;-70
2021/07/19 11:05:06;;;;;;;9.77;7.90;;;;;;;28.33;38.11;100492.38;10256579;28;20043;-70
2021/07/19 11:10:20;;;;;;;11.20;8.70;;;;;;;28.74;37.70;100481.59;10250627;28;20057;-70
2021/07/19 11:15:37;;;;;;;9.43;8.40;;;;;;;29.22;36.00;100477.75;10252665;28;20441;-68
2021/07/19 11:20:43;;;;;;;10.00;8.98;;;;;;;29.65;35.50;100481.06;10253761;28;20074;-68
2021/07/19 11:25:46;;;;;;;10.43;9.43;;;;;;;28.80;36.27;100474.34;10256687;28;20802;-67
2021/07/19 11:31:08;;;;;;;12.27;9.80;;;;;;;28.69;37.47;100476.84;10257538;28;20440;-68
2021/07/19 11:36:26;;;;;;;10.67;9.00;;;;;;;29.31;35.95;100464.50;10255496;28;20142;-68
2021/07/19 11:41:34;;;;;;;58.00;15.07;;;;;;;29.24;36.15;100463.78;10257606;28;20043;-68
2021/07/19 11:46:37;;;;;;;12.27;9.40;;;;;;;29.76;35.83;100482.09;10268040;28;20536;-67
2021/07/19 11:51:42;;;;;;;10.45;9.45;;;;;;;30.03;33.42;100476.03;10251942;28;20470;-67
2021/07/19 11:56:57;;;;;;;9.90;8.95;;;;;;;30.22;33.84;100474.72;10253313;28;20092;-67
2021/07/19 12:02:00;;;;;;;12.35;11.20;;;;;;;30.39;34.11;100468.41;10252553;28;20062;-68
2021/07/19 12:07:02;;;;;;;10.35;9.13;;;;;;;29.64;35.16;100467.63;10252797;28;20770;-68
2021/07/19 12:12:04;;;;;;;10.27;9.20;;;;;;;29.86;35.07;100465.00;10251765;28;20063;-69
2021/07/19 12:17:08;;;;;;;;;;;;;;;30.27;34.81;100452.81;10252986;28;20062;-69
2021/07/19 12:22:09;;;;;;;12.30;10.25;;;;;;;30.24;34.44;100438.78;10254042;28;19930;-69
2021/07/19 12:27:11;;;;;;;10.65;9.07;;;;;;;29.90;35.06;100445.06;10254440;28;20062;-69
2021/07/19 12:32:12;;;;;;;10.82;9.77;;;;;;;30.11;34.50;100438.00;10251585;28;20686;-69
2021/07/19 12:37:17;;;;;;;13.90;9.95;;;;;;;30.14;34.82;100436.69;10269456;28;20062;-70
2021/07/19 12:42:22;;;;;;;10.82;9.73;;;;;;;30.14;34.88;100433.94;10256287;28;20484;-70
2021/07/19 12:47:26;;;;;;;10.90;9.45;;;;;;;30.01;34.83;100423.28;10258055;28;20055;-68
2021/07/19 12:52:32;;;;;;;11.18;10.05;;;;;;;29.52;35.50;100413.63;10258983;28;20540;-68
2021/07/19 12:57:53;;;;;;;11.63;9.65;;;;;;;29.72;35.09;100417.84;10262235;28;20125;-68
2021/07/19 13:03:17;;;;;;;11.25;10.00;;;;;;;29.84;35.47;100424.09;10261346;28;20429;-68
2021/07/19 13:08:29;;;;;;;11.20;10.10;;;;;;;29.66;35.55;100411.41;10259256;28;20118;-68
2021/07/19 13:13:30;;;;;;;;;;;;;;;28.90;36.63;100414.31;10259526;28;20050;-67
2021/07/19 13:18:35;;;;;;;14.68;10.80;;;;;;;29.03;36.13;100402.22;10257853;28;19922;-69
2021/07/19 13:23:39;;;;;;;12.38;10.52;;;;;;;28.91;36.56;100405.84;10256446;28;21659;-69
2021/07/19 13:28:42;;;;;;;12.05;10.77;;;;;;;29.01;37.00;100409.88;10257469;28;20051;-67
2021/07/19 13:33:44;;;;;;;11.82;10.52;;;;;;;29.26;36.58;100407.66;10256446;28;20058;-69
2021/07/19 13:38:48;;;;;;;;;;;;;;;29.28;35.92;100404.69;10260858;28;20055;-68
2021/07/19 13:43:59;;;;;;;11.82;10.63;;;;;;;28.96;36.12;100396.03;10258832;28;19929;-69
2021/07/19 13:49:00;;;;;;;11.43;10.27;;;;;;;29.12;36.36;100402.69;10265222;28;20828;-68
2021/07/19 13:54:01;;;;;;;13.37;10.40;;;;;;;28.85;36.57;100395.81;10269816;28;20054;-67
2021/07/19 13:59:03;;;;;;;12.27;11.00;;;;;;;28.31;37.68;100397.88;10262630;28;20054;-66
2021/07/19 14:04:05;;;;;;;12.77;11.47;;;;;;;28.30;37.07;100393.47;10257033;28;20115;-70
2021/07/19 14:09:06;;;;;;;11.63;10.47;;;;;;;28.43;37.14;100398.69;10260269;28;20050;-68
2021/07/19 14:14:08;;;;;;;13.70;11.90;;;;;;;28.30;37.35;100399.78;10256370;28;20429;-67
2021/07/19 14:19:10;;;;;;;12.50;10.93;;;;;;;28.28;37.60;100403.81;10260508;28;20609;-68
2021/07/19 14:24:12;;;;;;;13.00;11.50;;;;;;;28.17;37.07;100389.91;10260484;28;20054;-68
2021/07/19 14:29:14;;;;;;;12.23;11.00;;;;;;;28.19;36.64;100393.25;10254628;28;20179;-68
2021/07/19 14:34:16;;;;;;;13.23;11.88;;;;;;;27.81;37.48;100397.19;10259425;28;20428;-67
2021/07/19 14:39:17;;;;;;;13.65;12.18;;;;;;;27.75;37.98;100392.66;10265030;28;20062;-68
2021/07/19 14:44:19;;;;;;;12.30;11.10;;;;;;;27.78;38.19;100383.16;10261314;28;20703;-68
2021/07/19 14:49:20;;;;;;;13.10;10.88;;;;;;;27.71;37.25;100375.03;10258356;28;20055;-68
2021/07/19 14:54:22;;;;;;;12.98;11.77;;;;;;;27.42;37.79;100377.56;10255348;28;20055;-66
2021/07/19 14:59:23;;;;;;;13.68;12.27;;;;;;;27.43;38.43;100368.31;10253908;28;20402;-68
2021/07/19 15:04:25;;;;;;;13.27;11.98;;;;;;;27.26;38.08;100367.25;10256665;28;20046;-68
2021/07/19 15:09:27;;;;;;;13.07;11.68;;;;;;;27.30;38.87;100349.34;10257642;28;20047;-68
2021/07/19 15:14:28;;;;;;;11.77;10.67;;;;;;;27.19;38.81;100347.38;10254470;28;20512;-68
2021/07/19 15:19:30;;;;;;;13.50;12.15;;;;;;;27.11;39.12;100343.09;10254897;28;20505;-69
2021/07/19 15:24:33;;;;;;;13.20;11.80;;;;;;;27.07;39.56;100347.34;10253224;28;20053;-68
2021/07/19 15:29:34;;;;;;;12.43;11.13;;;;;;;27.13;39.58;100339.06;10253675;28;20051;-68
2021/07/19 15:34:36;;;;;;;12.32;10.75;;;;;;;27.13;39.84;100336.34;10254055;28;20053;-69
2021/07/19 15:39:37;;;;;;;12.80;11.50;;;;;;;26.89;39.93;100340.00;10254051;28;20054;-68
2021/07/19 15:44:39;;;;;;;13.13;11.82;;;;;;;26.91;40.48;100332.44;10251712;28;20059;-70
2021/07/19 15:49:43;;;;;;;12.57;11.38;;;;;;;26.85;40.25;100334.19;10255494;28;20109;-69
2021/07/19 15:54:45;;;;;;;12.68;11.38;;;;;;;26.95;40.43;100328.19;10251945;28;20043;-68
2021/07/19 15:59:47;;;;;;;12.35;11.05;;;;;;;26.88;40.51;100324.69;10253441;28;20050;-67
2021/07/19 16:04:48;;;;;;;12.00;10.77;;;;;;;26.84;40.26;100327.03;10253531;28;20058;-68
2021/07/19 16:09:50;;;;;;;13.07;11.77;;;;;;;26.74;40.64;100311.22;10254800;28;20054;-67
2021/07/19 16:14:52;;;;;;;14.50;11.82;;;;;;;26.54;41.64;100336.00;10254164;28;20050;-66
2021/07/19 16:19:59;;;;;;;12.60;11.27;;;;;;;26.57;41.50;100327.34;10254908;28;20050;-68
2021/07/19 16:25:01;;;;;;;12.63;11.43;;;;;;;26.60;41.49;100320.59;10259380;28;20061;-68
2021/07/19 16:30:06;;;;;;;13.00;11.53;;;;;;;26.56;41.71;100330.31;10263870;28;20054;-67
2021/07/19 16:35:08;;;;;;;13.10;11.88;;;;;;;26.44;41.62;100331.06;10261968;28;20050;-65
2021/07/19 16:40:10;;;;;;;13.18;11.88;;;;;;;26.34;42.56;100319.00;10264673;28;20480;-70
2021/07/19 16:50:20;;;;;;;15.45;12.65;;;;;;;26.22;42.63;100327.09;10261092;28;20238;-68
2021/07/19 16:55:21;;;;;;;13.43;11.98;;;;;;;26.17;42.76;100326.94;10261004;28;20055;-68
2021/07/19 17:00:23;;;;;;;12.85;10.98;;;;;;;26.01;42.81;100323.72;10261383;28;20054;-68
2021/07/19 17:05:25;;;;;;;12.50;11.40;;;;;;;25.76;43.44;100319.09;10262455;28;20054;-68
2021/07/19 17:10:28;;;;;;;12.20;11.00;;;;;;;25.63;43.90;100321.91;10254841;22;20117;-66
2021/07/19 17:15:29;;;;;;;15.32;11.57;;;;;;;25.53;43.88;100324.28;10322921;28;20401;-65
2021/07/19 17:20:31;;;;;;;14.65;12.43;;;;;;;25.64;43.83;100317.28;10306953;28;20047;-67
2021/07/19 17:25:36;;;;;;;12.05;10.93;;;;;;;25.70;43.64;100316.41;10291939;28;20035;-64
2021/07/19 17:30:39;;;;;;;12.23;11.02;;;;;;;25.65;43.96;100314.34;10278139;28;20061;-64
2021/07/19 17:35:43;;;;;;;11.98;10.68;;;;;;;25.54;43.94;100320.53;10287177;28;20058;-66
2021/07/19 17:40:45;;;;;;;15.10;11.65;;;;;;;25.31;44.70;100323.78;10286434;28;20054;-65
2021/07/19 17:45:46;;;;;;;13.10;11.60;;;;;;;25.08;44.98;100319.72;10284759;28;20063;-65
2021/07/19 17:50:48;;;;;;;12.15;10.95;;;;;;;24.82;45.17;100331.56;10288695;28;20055;-65
2021/07/19 17:55:50;;;;;;;14.20;12.00;;;;;;;24.93;44.89;100344.50;10280932;28;20395;-69
2021/07/19 18:00:52;;;;;;;16.70;10.52;;;;;;;24.59;45.08;100332.06;10280241;28;20742;-65
2021/07/19 18:05:55;;;;;;;12.45;11.25;;;;;;;24.53;45.51;100344.63;10286457;28;20046;-65
2021/07/19 18:10:56;;;;;;;11.10;9.93;;;;;;;24.50;45.86;100353.19;10288292;28;20230;-66
2021/07/19 18:15:58;;;;;;;11.80;10.57;;;;;;;24.42;45.58;100342.53;10290726;28;20058;-65
2021/07/19 18:21:00;;;;;;;16.35;11.73;;;;;;;24.31;45.42;100358.47;10290397;28;20066;-65
2021/07/19 18:31:03;;;;;;;11.48;9.90;;;;;;;23.99;45.88;100365.63;10286741;28;20054;-65
2021/07/19 18:36:05;;;;;;;12.77;10.38;;;;;;;23.86;46.02;100384.63;10285585;28;20609;-65
2021/07/19 18:41:08;;;;;;;11.00;9.43;;;;;;;23.74;46.51;100385.22;10284864;28;20055;-65
2021/07/19 18:46:09;;;;;;;10.60;9.40;;;;;;;23.69;46.56;100376.00;10285062;28;20153;-66
2021/07/19 18:51:11;;;;;;;14.15;10.32;;;;;;;23.60;46.62;100373.50;10289284;28;20074;-65
2021/07/19 18:56:12;;;;;;;12.45;10.13;;;;;;;23.52;46.98;100376.38;10287473;28;20058;-66
2021/07/19 19:01:14;;;;;;;13.00;10.20;;;;;;;23.51;46.77;100388.31;10286055;28;20057;-66
2021/07/19 19:06:16;;;;;;;10.18;9.02;;;;;;;23.52;47.34;100391.84;10287248;28;20069;-66
2021/07/19 19:11:24;;;;;;;12.52;9.32;;;;;;;23.33;47.11;100388.03;10282691;28;20061;-66
2021/07/19 19:16:26;;;;;;;13.45;10.52;;;;;;;23.11;47.46;100390.91;10280366;28;20050;-66
2021/07/19 19:21:28;;;;;;;10.80;9.60;;;;;;;22.93;47.73;100405.81;10280792;28;20060;-66
2021/07/19 19:26:29;;;;;;;14.15;9.32;;;;;;;22.81;47.69;100409.31;10285700;28;20054;-66
2021/07/19 19:31:31;;;;;;;10.30;9.20;;;;;;;22.65;48.13;100418.59;10282967;28;20053;-66
2021/07/19 19:36:33;;;;;;;10.63;9.30;;;;;;;22.49;48.46;100417.00;10281732;28;20572;-66
2021/07/19 19:41:38;;;;;;;11.27;8.57;;;;;;;22.50;49.02;100427.66;10283160;28;20051;-65
2021/07/19 19:46:40;;;;;;;10.30;9.20;;;;;;;22.45;48.70;100440.16;10279581;28;20057;-65
2021/07/19 19:51:41;;;;;;;10.95;9.48;;;;;;;22.33;49.29;100432.56;10279036;28;20057;-66
2021/07/19 19:56:42;;;;;;;9.88;8.88;;;;;;;22.36;49.24;100442.19;10282662;28;20523;-68
2021/07/19 20:01:44;;;;;;;12.48;9.18;;;;;;;22.26;49.40;100447.88;10290375;28;20050;-66
2021/07/19 20:06:46;;;;;;;10.93;9.93;;;;;;;22.17;49.60;100444.50;10292435;28;20161;-66
2021/07/19 20:11:49;;;;;;;10.98;8.90;;;;;;;21.96;50.31;100436.38;10292669;28;20110;-66
2021/07/19 20:16:51;;;;;;;12.43;9.55;;;;;;;21.98;49.89;100456.81;10289845;28;20549;-69
2021/07/19 20:21:52;;;;;;;10.75;9.32;;;;;;;21.94;49.97;100468.25;10294053;28;20761;-67
2021/07/19 20:26:54;;;;;;;11.15;9.35;;;;;;;21.85;49.89;100462.94;10290678;28;20525;-67
2021/07/19 20:31:55;;;;;;;10.45;9.07;;;;;;;21.81;50.10;100466.22;10285948;28;20409;-68
2021/07/19 20:36:57;;;;;;;13.18;9.23;;;;;;;21.64;50.00;100465.63;10288914;28;20058;-67
2021/07/19 20:42:02;;;;;;;9.15;8.23;;;;;;;21.51;50.07;100450.91;10291456;28;20051;-66
2021/07/19 20:47:04;;;;;;;12.23;9.38;;;;;;;21.38;50.42;100461.56;10285105;28;20061;-66
2021/07/19 20:52:06;;;;;;;10.90;8.43;;;;;;;21.43;50.19;100466.41;10273296;28;20055;-68
2021/07/19 20:57:07;;;;;;;10.45;8.85;;;;;;;21.41;50.02;100454.91;10257377;28;20047;-67
2021/07/19 21:02:09;;;;;;;9.52;8.13;;;;;;;21.36;50.63;100464.47;10259836;28;20126;-65
2021/07/19 21:07:11;;;;;;;9.27;8.23;;;;;;;21.30;51.47;100459.81;10274852;28;20528;-65
2021/07/19 21:12:14;;;;;;;10.33;8.90;;;;;;;21.24;50.64;100470.53;10262963;28;20046;-64
2021/07/19 21:17:15;;;;;;;10.27;8.40;;;;;;;21.21;50.66;100482.56;10266427;28;20501;-65
2021/07/19 21:22:17;;;;;;;11.77;9.40;;;;;;;21.20;50.41;100486.31;10275934;28;20069;-67
2021/07/19 21:27:18;;;;;;;10.77;9.23;;;;;;;21.00;50.85;100473.34;10273220;28;20054;-64
2021/07/19 21:32:20;;;;;;;10.52;9.43;;;;;;;21.09;51.37;100490.34;10273472;28;20813;-64
2021/07/19 21:37:21;;;;;;;12.40;8.82;;;;;;;20.80;51.85;100491.97;10283258;28;20500;-65
2021/07/19 21:42:23;;;;;;;10.18;8.90;;;;;;;20.80;51.59;100481.16;10297803;28;20043;-65
2021/07/19 21:47:26;;;;;;;13.88;9.38;;;;;;;20.77;51.83;100478.00;10267672;28;20046;-65
2021/07/19 21:52:29;;;;;;;11.83;9.77;;;;;;;20.80;52.24;100499.25;10263574;28;20050;-65
2021/07/19 21:57:31;;;;;;;12.07;8.80;;;;;;;20.73;52.78;100491.06;10261772;28;20057;-66
2021/07/19 22:02:32;;;;;;;10.82;8.75;;;;;;;20.68;52.68;100481.81;10264386;28;20145;-67
2021/07/19 22:07:34;;;;;;;10.82;8.52;;;;;;;20.61;53.43;100476.25;10256290;28;20066;-66
2021/07/19 22:12:36;;;;;;;11.43;10.07;;;;;;;20.71;53.55;100492.25;10266443;28;20053;-66
2021/07/19 22:17:38;;;;;;;10.55;9.45;;;;;;;20.66;53.34;100500.94;10272128;28;20051;-66
2021/07/19 22:22:45;;;;;;;11.18;9.25;;;;;;;20.63;53.76;100501.28;10269656;28;20061;-65
2021/07/19 22:27:49;;;;;;;12.73;9.30;;;;;;;20.56;53.72;100505.72;10256051;28;20043;-64
2021/07/19 22:32:52;;;;;;;11.73;9.38;;;;;;;20.36;54.20;100489.19;10264272;28;20043;-65
2021/07/19 22:37:54;;;;;;;12.15;9.65;;;;;;;20.29;54.67;100499.84;10262560;28;20256;-65
2021/07/19 22:42:57;;;;;;;12.07;9.90;;;;;;;20.24;55.11;100504.97;10261110;28;20043;-65
2021/07/19 22:47:59;;;;;;;13.10;9.70;;;;;;;20.22;55.24;100504.31;10260295;28;20069;-65
2021/07/19 22:53:00;;;;;;;12.70;9.52;;;;;;;20.20;55.62;100514.47;10253522;28;20055;-65
2021/07/19 22:58:04;;;;;;;11.63;9.90;;;;;;;20.01;55.85;100500.41;10253306;28;20445;-66
2021/07/19 23:03:06;;;;;;;11.18;9.98;;;;;;;20.07;55.89;100502.41;10253992;28;20178;-66
2021/07/19 23:08:08;;;;;;;10.93;9.30;;;;;;;19.93;55.99;100487.78;10254488;28;20137;-67
2021/07/19 23:13:09;;;;;;;11.90;10.43;;;;;;;19.94;56.01;100502.16;10258021;28;20054;-65